Time;durP1;ratioP1;P1;durP2;ratioP2;P2;SDS_P1;SDS_P2;PMS_P1;PMS_P2;Temp;Humidity;BMP_temperature;BMP_pressure;BME280_temperature;BME280_humidity;BME280_pressure;Samples;Min_cycle;Max_cycle;Signal;HPM_P1;HPM_P2
2022/12/06 00:01:21;;;;;;;4.03;1.40;;;;;;;5.65;100.00;102394.50;5083237;28;20101;-82
2022/12/06 00:03:52;;;;;;;3.63;1.27;;;;;;;5.80;100.00;102411.94;5098194;28;20542;-82
2022/12/06 00:06:21;;;;;;;3.08;1.20;;;;;;;5.94;100.00;102435.47;5099741;28;20401;-82
2022/12/06 00:08:48;;;;;;;5.50;1.33;;;;;;;5.60;100.00;102371.94;5091234;28;20109;-82
2022/12/06 00:11:27;;;;;;;3.38;1.40;;;;;;;5.91;100.00;102412.03;5109055;28;20484;-82
2022/12/06 00:14:00;;;;;;;3.13;1.42;;;;;;;5.87;100.00;102418.09;5093583;28;20052;-82
2022/12/06 00:16:27;;;;;;;3.13;1.30;;;;;;;5.95;100.00;102413.84;5093103;28;20097;-82
2022/12/06 00:18:55;;;;;;;4.28;1.20;;;;;;;5.77;100.00;102408.44;5092242;28;20048;-82
2022/12/06 00:21:27;;;;;;;3.03;1.10;;;;;;;5.90;100.00;102390.38;5106114;28;20204;-82
2022/12/06 00:24:02;;;;;;;4.70;1.20;;;;;;;5.79;100.00;102402.44;5098255;28;20493;-82
2022/12/06 00:26:30;;;;;;;1.80;1.10;;;;;;;5.90;100.00;102398.19;5092683;28;20452;-82
2022/12/06 00:28:59;;;;;;;3.35;1.20;;;;;;;5.84;100.00;102403.34;5092497;28;20106;-82
2022/12/06 00:31:28;;;;;;;2.72;1.10;;;;;;;6.04;100.00;102405.28;5090989;28;20104;-83
2022/12/06 00:33:56;;;;;;;3.30;1.13;;;;;;;5.95;100.00;102408.63;5086538;28;20052;-82
2022/12/06 00:36:25;;;;;;;3.67;1.30;;;;;;;5.87;100.00;102397.28;5107932;28;20048;-83
2022/12/06 00:38:52;;;;;;;5.63;1.45;;;;;;;5.91;100.00;102393.84;5106286;28;20048;-82
2022/12/06 00:41:22;;;;;;;3.13;1.33;;;;;;;5.92;100.00;102372.19;5107816;28;20047;-83
2022/12/06 00:43:50;;;;;;;8.60;1.50;;;;;;;5.80;100.00;102383.34;5090863;28;20084;-83
2022/12/06 00:46:20;;;;;;;3.58;1.35;;;;;;;5.93;100.00;102388.66;5092250;28;20113;-83
2022/12/06 00:48:48;;;;;;;6.88;1.63;;;;;;;5.93;100.00;102381.72;5105783;28;20712;-82
2022/12/06 00:51:16;;;;;;;3.83;1.20;;;;;;;6.05;100.00;102384.44;5091192;28;20518;-83
2022/12/06 00:53:44;;;;;;;4.25;1.20;;;;;;;5.89;100.00;102356.56;5108121;28;20089;-83
2022/12/06 00:56:11;;;;;;;6.70;1.60;;;;;;;5.87;100.00;102390.34;5092121;28;20481;-83
2022/12/06 00:58:38;;;;;;;5.00;1.30;;;;;;;5.92;100.00;102348.81;5091067;28;20129;-83
2022/12/06 01:01:24;;;;;;;7.57;1.40;;;;;;;6.29;100.00;102387.25;5102124;28;20093;-83
2022/12/06 01:03:55;;;;;;;7.70;1.50;;;;;;;6.16;100.00;102371.56;5091927;28;20129;-83
2022/12/06 01:06:26;;;;;;;8.25;2.08;;;;;;;6.20;100.00;102394.13;5107424;28;20048;-83
2022/12/06 01:08:55;;;;;;;6.43;1.60;;;;;;;5.90;100.00;102340.13;5092331;28;20054;-82
2022/12/06 01:11:23;;;;;;;6.32;2.13;;;;;;;6.00;100.00;102377.47;5091001;28;20051;-83
2022/12/06 01:13:50;;;;;;;6.22;1.67;;;;;;;6.04;100.00;102361.94;5090553;28;20653;-83
2022/12/06 01:16:23;;;;;;;6.13;1.60;;;;;;;6.30;100.00;102373.34;5090912;28;20044;-83
2022/12/06 01:18:52;;;;;;;11.50;2.17;;;;;;;6.20;100.00;102364.66;5090016;28;20557;-83
2022/12/06 01:21:20;;;;;;;8.18;1.60;;;;;;;6.17;100.00;102356.81;5099437;28;20056;-82
2022/12/06 01:23:48;;;;;;;7.95;1.52;;;;;;;6.06;100.00;102362.81;5085123;28;20056;-83
2022/12/06 01:26:24;;;;;;;8.18;1.90;;;;;;;6.01;100.00;102337.63;5083021;28;20047;-83
2022/12/06 01:28:52;;;;;;;5.05;1.50;;;;;;;6.12;100.00;102368.91;5091025;28;20051;-83
2022/12/06 01:31:19;;;;;;;8.40;1.77;;;;;;;6.06;100.00;102368.00;5077825;28;20089;-83
2022/12/06 01:33:45;;;;;;;9.20;1.80;;;;;;;5.87;100.00;102322.75;5091792;28;20048;-83
2022/12/06 01:36:16;;;;;;;10.82;2.30;;;;;;;5.93;100.00;102336.66;5091696;28;20105;-83
2022/12/06 01:38:47;;;;;;;12.55;2.78;;;;;;;5.90;100.00;102320.19;5091352;28;20436;-83
2022/12/06 01:41:14;;;;;;;12.90;3.08;;;;;;;6.03;100.00;102343.72;5090955;28;20470;-82
2022/12/06 01:43:43;;;;;;;16.38;2.67;;;;;;;5.90;100.00;102338.38;5091765;28;20044;-83
2022/12/06 01:46:20;;;;;;;10.60;1.95;;;;;;;5.96;100.00;102345.38;5091629;28;20052;-83
2022/12/06 01:48:52;;;;;;;8.85;1.85;;;;;;;5.79;100.00;102310.56;5103696;28;20097;-82
2022/12/06 01:51:20;;;;;;;7.32;1.75;;;;;;;5.94;100.00;102338.41;5095009;28;20047;-83
2022/12/06 01:53:49;;;;;;;14.60;2.00;;;;;;;5.84;100.00;102343.56;5111600;28;20093;-82
2022/12/06 01:56:16;;;;;;;11.57;2.50;;;;;;;5.87;100.00;102346.16;5093503;28;20089;-83
2022/12/06 01:58:46;;;;;;;6.22;1.80;;;;;;;5.84;100.00;102353.06;5094717;28;20496;-83
2022/12/06 02:01:13;;;;;;;9.75;1.77;;;;;;;5.75;100.00;102353.00;5095424;28;20539;-83
2022/12/06 02:03:41;;;;;;;10.32;2.00;;;;;;;5.80;100.00;102351.31;5096968;28;20507;-83
2022/12/06 02:06:08;;;;;;;11.65;2.20;;;;;;;5.73;100.00;102331.31;5095633;28;20051;-83
2022/12/06 02:08:37;;;;;;;10.23;2.90;;;;;;;5.77;100.00;102351.28;5094932;28;20056;-83
2022/12/06 02:11:04;;;;;;;14.25;2.50;;;;;;;5.85;100.00;102344.41;5095372;28;20094;-83
2022/12/06 02:13:33;;;;;;;15.18;2.67;;;;;;;5.60;100.00;102330.34;5094112;28;20101;-83
2022/12/06 02:16:27;;;;;;;8.00;1.98;;;;;;;5.80;100.00;102338.31;5110642;28;20047;-83
2022/12/06 02:19:04;;;;;;;9.23;2.20;;;;;;;5.57;100.00;102336.38;5109843;28;20051;-82
2022/12/06 02:21:43;;;;;;;14.55;2.70;;;;;;;5.62;100.00;102339.88;5102103;28;20102;-83
2022/12/06 02:24:16;;;;;;;12.45;2.72;;;;;;;5.64;100.00;102332.97;5091237;28;20048;-82
2022/12/06 02:26:47;;;;;;;11.48;2.58;;;;;;;5.61;100.00;102330.38;5092860;28;20052;-83
2022/12/06 02:29:31;;;;;;;16.55;2.65;;;;;;;5.56;100.00;102321.66;5093914;28;20056;-82
2022/12/06 02:32:15;;;;;;;11.38;2.70;;;;;;;5.64;100.00;102306.13;5085498;28;20102;-83
2022/12/06 02:34:59;;;;;;;12.93;2.40;;;;;;;5.60;100.00;102314.75;5094390;28;20097;-83
2022/12/06 02:37:35;;;;;;;18.38;2.90;;;;;;;5.50;100.00;102319.84;5094748;28;20051;-83
2022/12/06 02:40:12;;;;;;;14.43;2.67;;;;;;;5.59;100.00;102328.59;5092825;28;20048;-83
2022/12/06 02:42:49;;;;;;;16.20;3.03;;;;;;;5.59;100.00;102320.81;5094954;28;20116;-83
2022/12/06 02:45:20;;;;;;;18.40;4.85;;;;;;;5.50;100.00;102319.00;5094734;28;20044;-83
2022/12/06 02:47:50;;;;;;;25.27;4.68;;;;;;;5.44;100.00;102312.03;5094332;28;20063;-83
2022/12/06 02:50:21;;;;;;;16.17;3.78;;;;;;;5.61;100.00;102317.38;5093189;28;20048;-83
2022/12/06 02:52:52;;;;;;;15.73;2.97;;;;;;;5.52;100.00;102322.47;5095051;28;20048;-83
2022/12/06 02:55:22;;;;;;;18.27;3.08;;;;;;;5.75;100.00;102324.41;5094349;28;20040;-83
2022/12/06 02:57:51;;;;;;;13.20;2.50;;;;;;;5.70;100.00;102312.25;5092748;28;20048;-83
2022/12/06 03:00:30;;;;;;;15.10;2.58;;;;;;;5.88;100.00;102315.84;5094336;28;20048;-83
2022/12/06 03:03:22;;;;;;;16.20;3.00;;;;;;;5.84;100.00;102317.56;5094003;28;20060;-83
2022/12/06 03:06:25;;;;;;;16.70;2.88;;;;;;;5.83;100.00;102309.75;5080201;28;20101;-83
2022/12/06 03:09:03;;;;;;;16.75;3.50;;;;;;;5.88;100.00;102293.31;5089339;28;20044;-83
2022/12/06 03:11:55;;;;;;;14.50;2.78;;;;;;;5.64;100.00;102306.13;5093496;28;20052;-83
2022/12/06 03:14:24;;;;;;;22.08;3.53;;;;;;;5.58;100.00;102306.94;5109744;28;20366;-83
2022/12/06 03:17:12;;;;;;;13.57;2.95;;;;;;;5.54;100.00;102310.34;5108419;28;20044;-83
2022/12/06 03:19:41;;;;;;;18.23;3.47;;;;;;;5.40;100.00;102283.41;5072761;28;20048;-83
2022/12/06 03:22:12;;;;;;;15.75;2.97;;;;;;;5.58;100.00;102298.25;5073357;28;20086;-83
2022/12/06 03:24:41;;;;;;;16.70;2.63;;;;;;;5.68;100.00;102284.50;5103164;28;20094;-83
2022/12/06 03:27:18;;;;;;;21.35;3.90;;;;;;;5.69;100.00;102288.84;5092956;28;20048;-83
2022/12/06 03:29:52;;;;;;;14.55;3.13;;;;;;;5.76;100.00;102290.63;5080250;28;20378;-83
2022/12/06 03:32:22;;;;;;;;;;;;;;;5.86;100.00;102296.75;5092364;28;20048;-83
2022/12/06 03:34:52;;;;;;;10.70;2.00;;;;;;;5.74;100.00;102281.94;5092015;28;20419;-83
2022/12/06 03:37:23;;;;;;;13.20;3.50;;;;;;;5.64;100.00;102287.94;5092063;28;20043;-83
2022/12/06 03:40:14;;;;;;;17.42;3.13;;;;;;;5.73;100.00;102274.13;5093460;28;20085;-83
2022/12/06 03:42:41;;;;;;;18.02;2.90;;;;;;;5.75;100.00;102290.63;5093529;28;20477;-83
2022/12/06 03:45:11;;;;;;;15.68;2.80;;;;;;;5.95;100.00;102291.63;5109134;28;20044;-83
2022/12/06 03:48:12;;;;;;;12.73;2.50;;;;;;;5.87;100.00;102288.97;5092458;28;20052;-83
2022/12/06 03:50:46;;;;;;;11.25;2.85;;;;;;;5.99;100.00;102277.81;5069647;28;20047;-83
2022/12/06 03:53:16;;;;;;;13.65;2.70;;;;;;;5.93;100.00;102262.13;5093677;28;20048;-83
2022/12/06 03:55:44;;;;;;;17.65;4.25;;;;;;;5.83;100.00;102266.41;5090616;28;20056;-83
2022/12/06 03:58:11;;;;;;;16.42;3.22;;;;;;;5.62;100.00;102235.94;5092567;28;20048;-83
2022/12/06 04:00:38;;;;;;;11.70;2.03;;;;;;;5.82;100.00;102249.06;5092950;28;20056;-83
2022/12/06 04:03:05;;;;;;;12.68;2.42;;;;;;;5.90;100.00;102265.59;5081327;28;20048;-82
2022/12/06 04:05:32;;;;;;;13.95;3.03;;;;;;;5.60;100.00;102252.41;5091088;28;20040;-83
2022/12/06 04:07:58;;;;;;;17.45;3.42;;;;;;;5.62;100.00;102258.47;5092779;28;20044;-83
2022/12/06 04:10:25;;;;;;;14.80;3.50;;;;;;;5.65;100.00;102259.38;5092943;28;20044;-83
2022/12/06 04:13:01;;;;;;;11.70;2.33;;;;;;;5.78;100.00;102275.91;5092039;28;20097;-83
2022/12/06 04:15:34;;;;;;;18.40;3.78;;;;;;;5.74;100.00;102268.06;5106877;28;20225;-83
2022/12/06 04:18:09;;;;;;;14.95;2.75;;;;;;;5.64;100.00;102267.16;5084225;28;20047;-83
2022/12/06 04:23:31;;;;;;;15.65;3.10;;;;;;;5.76;100.00;102267.22;5083396;28;20477;-83
2022/12/06 04:25:58;;;;;;;13.50;2.50;;;;;;;5.81;100.00;102257.75;5084906;28;20040;-83
2022/12/06 04:39:27;;;;;;;19.33;2.88;;;;;;;5.50;100.00;102241.91;5083561;28;20043;-83
2022/12/06 04:44:40;;;;;;;18.25;2.75;;;;;;;5.59;100.00;102243.72;5092613;28;20447;-83
2022/12/06 04:47:07;;;;;;;10.05;2.30;;;;;;;5.56;100.00;102240.22;5091699;28;20116;-83
2022/12/06 04:49:36;;;;;;;12.98;3.65;;;;;;;5.65;100.00;102241.19;5092222;28;20052;-83
2022/12/06 04:52:05;;;;;;;11.18;2.67;;;;;;;5.76;100.00;102235.19;5107588;28;20055;-83
2022/12/06 04:54:32;;;;;;;14.15;2.53;;;;;;;5.77;100.00;102237.78;5092079;28;20609;-83
2022/12/06 04:56:59;;;;;;;13.32;2.72;;;;;;;5.79;100.00;102235.19;5088047;28;20040;-82
2022/12/06 04:59:27;;;;;;;18.95;2.97;;;;;;;5.56;100.00;102241.13;5083448;28;20443;-82
2022/12/06 05:01:55;;;;;;;14.07;2.53;;;;;;;5.59;100.00;102245.44;5081342;28;20051;-82
2022/12/06 05:04:22;;;;;;;12.93;2.55;;;;;;;5.46;100.00;102234.09;5073427;28;20049;-82
2022/12/06 05:06:49;;;;;;;13.38;3.38;;;;;;;5.59;100.00;102230.72;5088279;28;20093;-82
2022/12/06 05:09:15;;;;;;;23.23;4.13;;;;;;;5.35;100.00;102212.34;5091769;28;20048;-83
2022/12/06 05:11:42;;;;;;;17.42;3.47;;;;;;;5.68;100.00;102237.72;5091793;28;20121;-83
2022/12/06 05:14:09;;;;;;;12.68;2.65;;;;;;;5.55;100.00;102230.72;5091931;28;20109;-83
2022/12/06 05:16:36;;;;;;;17.23;3.03;;;;;;;5.76;100.00;102235.19;5090243;28;20052;-83
2022/12/06 05:19:03;;;;;;;13.48;2.60;;;;;;;5.58;100.00;102234.19;5091015;28;20052;-83
2022/12/06 05:21:30;;;;;;;11.93;2.60;;;;;;;5.80;100.00;102230.00;5091505;28;20085;-83
2022/12/06 05:23:57;;;;;;;11.65;2.47;;;;;;;5.78;100.00;102243.84;5090440;28;20048;-83
2022/12/06 05:26:27;;;;;;;15.48;2.20;;;;;;;5.83;100.00;102230.03;5083879;28;20042;-83
2022/12/06 05:28:54;;;;;;;18.40;3.35;;;;;;;5.69;100.00;102244.66;5089973;28;20052;-83
2022/12/06 05:31:23;;;;;;;16.23;2.85;;;;;;;5.71;100.00;102250.75;5092003;28;20481;-82
2022/12/06 05:33:53;;;;;;;14.82;3.35;;;;;;;5.80;100.00;102244.72;5089951;28;20058;-83
2022/12/06 05:36:23;;;;;;;14.20;2.88;;;;;;;5.57;100.00;102197.81;5089954;28;20048;-83
2022/12/06 05:38:50;;;;;;;13.68;3.65;;;;;;;5.81;100.00;102246.47;5090993;28;20116;-82
2022/12/06 05:41:21;;;;;;;18.58;3.22;;;;;;;5.64;100.00;102251.56;5090313;28;20044;-83
2022/12/06 05:43:48;;;;;;;17.13;3.20;;;;;;;5.66;100.00;102250.69;5078801;28;20109;-83
2022/12/06 05:46:16;;;;;;;14.43;3.17;;;;;;;5.70;100.00;102281.06;5090787;28;20529;-84
2022/12/06 05:48:46;;;;;;;14.40;2.28;;;;;;;5.19;100.00;102284.97;5088553;28;20501;-84
2022/12/06 05:51:13;;;;;;;13.82;2.78;;;;;;;5.34;100.00;102284.22;5091714;28;20048;-84
2022/12/06 05:53:40;;;;;;;10.93;2.90;;;;;;;5.27;100.00;102269.44;5089666;28;20048;-85
2022/12/06 05:56:09;;;;;;;12.73;2.92;;;;;;;5.12;100.00;102272.78;5097841;28;20493;-84
2022/12/06 05:58:37;;;;;;;9.63;2.53;;;;;;;5.24;100.00;102257.31;5091124;28;21492;-85
2022/12/06 06:01:06;;;;;;;13.98;2.38;;;;;;;5.05;100.00;102235.50;5089571;28;20048;-84
2022/12/06 06:03:33;;;;;;;8.52;2.40;;;;;;;5.17;100.00;102246.84;5089434;28;20048;-84
2022/12/06 06:06:00;;;;;;;12.15;2.83;;;;;;;5.17;100.00;102252.91;5089706;28;20040;-84
2022/12/06 06:08:28;;;;;;;13.45;3.08;;;;;;;5.14;100.00;102256.34;5080443;28;20051;-84
2022/12/06 06:10:55;;;;;;;17.77;3.75;;;;;;;4.91;100.00;102218.91;5085954;28;20093;-84
2022/12/06 06:13:22;;;;;;;13.00;3.10;;;;;;;5.03;100.00;102238.91;5084299;28;20048;-84
2022/12/06 06:15:49;;;;;;;10.52;2.15;;;;;;;5.25;100.00;102237.41;5086257;28;20686;-83
2022/12/06 06:18:17;;;;;;;13.10;3.15;;;;;;;5.30;100.00;102235.72;5086969;28;20040;-83
2022/12/06 06:20:52;;;;;;;10.85;2.25;;;;;;;5.32;100.00;102229.66;5086988;28;21474;-84
2022/12/06 06:23:20;;;;;;;13.27;2.35;;;;;;;5.37;100.00;102227.09;5087633;28;20451;-83
2022/12/06 06:25:47;;;;;;;11.27;2.20;;;;;;;5.31;100.00;102235.72;5085324;28;20048;-83
2022/12/06 06:28:15;;;;;;;11.63;2.55;;;;;;;5.41;100.00;102241.84;5086172;28;20107;-83
2022/12/06 06:30:42;;;;;;;13.75;2.65;;;;;;;5.22;100.00;102232.16;5103022;28;20481;-83
2022/12/06 06:33:10;;;;;;;14.70;2.45;;;;;;;5.39;100.00;102237.50;5087293;28;20114;-83
2022/12/06 06:35:38;;;;;;;21.73;3.72;;;;;;;5.20;100.00;102234.75;5100980;28;20168;-83
2022/12/06 06:38:05;;;;;;;17.17;3.75;;;;;;;5.21;100.00;102235.63;5087033;28;20055;-84
2022/12/06 06:40:32;;;;;;;15.75;2.53;;;;;;;5.37;100.00;102234.03;5090557;28;20047;-83
2022/12/06 06:43:16;;;;;;;15.73;3.38;;;;;;;5.12;100.00;102229.50;5087403;28;20055;-83
2022/12/06 06:45:50;;;;;;;20.42;4.53;;;;;;;4.90;100.00;102209.38;5085120;28;20056;-84
2022/12/06 06:48:17;;;;;;;14.77;3.33;;;;;;;4.93;100.00;102230.19;5089151;28;20048;-83
2022/12/06 06:50:44;;;;;;;12.57;3.47;;;;;;;5.00;100.00;102219.00;5088518;28;20059;-83
2022/12/06 06:53:11;;;;;;;14.85;2.85;;;;;;;5.02;100.00;102225.06;5091733;28;20086;-82
2022/12/06 06:55:38;;;;;;;17.48;3.05;;;;;;;4.65;100.00;102172.81;5094225;28;20063;-84
2022/12/06 06:58:05;;;;;;;20.08;2.92;;;;;;;4.95;100.00;102213.75;5092990;28;20129;-84
2022/12/06 07:00:32;;;;;;;14.95;3.42;;;;;;;4.98;100.00;102235.44;5091457;28;20056;-83
2022/12/06 07:02:58;;;;;;;15.05;2.72;;;;;;;4.74;100.00;102195.38;5086864;28;20109;-83
2022/12/06 07:05:26;;;;;;;16.63;6.10;;;;;;;5.02;100.00;102239.78;5086645;28;20489;-83
2022/12/06 07:07:53;;;;;;;19.05;3.70;;;;;;;4.96;100.00;102238.00;5091266;28;20664;-83
2022/12/06 07:10:20;;;;;;;11.02;2.55;;;;;;;4.99;100.00;102234.56;5090421;28;20052;-83
2022/12/06 07:12:48;;;;;;;14.00;2.60;;;;;;;4.75;100.00;102189.34;5084938;28;20478;-83
2022/12/06 07:15:15;;;;;;;17.45;3.17;;;;;;;4.74;100.00;102198.84;5087317;28;20067;-84
2022/12/06 07:17:42;;;;;;;10.90;2.80;;;;;;;4.88;100.00;102213.69;5093584;28;20097;-84
2022/12/06 07:20:09;;;;;;;16.63;2.63;;;;;;;4.87;100.00;102220.63;5085278;28;20077;-84
2022/12/06 07:22:36;;;;;;;15.55;2.83;;;;;;;4.91;100.00;102224.97;5087279;28;20056;-84
2022/12/06 07:25:03;;;;;;;16.63;2.55;;;;;;;4.95;100.00;102225.88;5089848;28;20555;-84
2022/12/06 07:27:34;;;;;;;14.95;3.05;;;;;;;4.75;100.00;102190.22;5089065;28;20051;-84
2022/12/06 07:30:04;;;;;;;15.50;2.95;;;;;;;4.87;100.00;102202.44;5098269;28;20436;-84
2022/12/06 07:32:35;;;;;;;15.30;2.83;;;;;;;4.74;100.00;102161.66;5101367;28;20048;-83
2022/12/06 07:35:03;;;;;;;13.38;2.55;;;;;;;5.19;100.00;102238.22;5109115;28;20052;-83
2022/12/06 07:37:31;;;;;;;14.85;2.53;;;;;;;4.91;100.00;102167.00;5097861;28;20077;-84
2022/12/06 07:39:59;;;;;;;16.80;2.92;;;;;;;4.98;100.00;102222.44;5100889;28;20555;-83
2022/12/06 07:45:13;;;;;;;9.35;2.92;;;;;;;4.93;100.00;102186.06;5100371;28;20048;-84
2022/12/06 07:47:42;;;;;;;18.27;3.30;;;;;;;5.25;100.00;102248.66;5099496;28;20413;-83
2022/12/06 07:50:12;;;;;;;16.92;3.15;;;;;;;4.93;100.00;102197.31;5091119;28;20052;-83
2022/12/06 07:52:45;;;;;;;13.18;3.03;;;;;;;5.01;100.00;102174.03;5099932;28;20052;-83
2022/12/06 07:55:13;;;;;;;18.17;3.78;;;;;;;5.03;100.00;102215.53;5115642;28;20055;-83
2022/12/06 07:57:40;;;;;;;23.83;4.72;;;;;;;4.81;100.00;102199.78;5099883;28;20093;-85
2022/12/06 08:00:12;;;;;;;15.18;3.70;;;;;;;4.93;100.00;102212.00;5097317;28;20135;-82
2022/12/06 08:02:38;;;;;;;18.02;3.85;;;;;;;5.04;100.00;102217.31;5097206;28;20056;-84
2022/12/06 08:05:06;;;;;;;13.77;3.67;;;;;;;5.07;100.00;102240.69;5101676;28;20055;-83
2022/12/06 08:07:32;;;;;;;16.45;2.97;;;;;;;5.33;100.00;102227.94;5097170;28;20048;-84
2022/12/06 08:09:59;;;;;;;11.52;3.30;;;;;;;5.29;100.00;102231.34;5102060;28;20058;-83
2022/12/06 08:12:30;;;;;;;21.77;3.90;;;;;;;5.18;100.00;102244.25;5101360;28;20044;-84
2022/12/06 08:14:57;;;;;;;17.83;3.42;;;;;;;5.23;100.00;102252.09;5100957;28;20477;-84
2022/12/06 08:17:26;;;;;;;16.88;3.35;;;;;;;4.99;100.00;102237.16;5100521;28;20048;-84
2022/12/06 08:19:52;;;;;;;18.73;3.08;;;;;;;5.11;100.00;102227.75;5099107;28;20044;-84
2022/12/06 08:22:20;;;;;;;14.10;2.35;;;;;;;4.65;100.00;102214.31;5102006;28;20469;-85
2022/12/06 08:24:50;;;;;;;13.15;3.08;;;;;;;4.89;100.00;102238.81;5103787;28;20040;-84
2022/12/06 08:27:16;;;;;;;19.13;5.10;;;;;;;5.11;100.00;102260.63;5098980;28;20058;-84
2022/12/06 08:29:45;;;;;;;13.40;2.53;;;;;;;5.23;100.00;102250.38;5100010;28;20792;-84
2022/12/06 08:32:13;;;;;;;13.63;2.88;;;;;;;5.18;100.00;102259.84;5101871;28;20047;-83
2022/12/06 08:34:41;;;;;;;13.70;2.80;;;;;;;5.20;100.00;102231.28;5100153;28;20176;-84
2022/12/06 08:37:10;;;;;;;13.95;3.00;;;;;;;5.02;100.00;102219.88;5103977;28;20036;-84
2022/12/06 08:39:37;;;;;;;12.90;2.50;;;;;;;5.10;100.00;102223.44;5103439;28;20252;-84
2022/12/06 08:42:06;;;;;;;13.55;2.88;;;;;;;5.18;100.00;102246.00;5094732;28;20397;-84
2022/12/06 08:44:35;;;;;;;16.42;3.38;;;;;;;5.09;100.00;102223.41;5099918;28;20052;-84
2022/12/06 08:47:02;;;;;;;11.48;2.33;;;;;;;5.08;100.00;102222.56;5101035;28;20051;-84
2022/12/06 08:49:30;;;;;;;21.30;2.38;;;;;;;5.27;100.00;102235.69;5101618;28;20051;-84
2022/12/06 08:51:57;;;;;;;16.58;2.70;;;;;;;5.37;100.00;102258.28;5096111;28;20089;-83
2022/12/06 08:54:24;;;;;;;15.98;3.15;;;;;;;5.38;100.00;102247.00;5098116;28;20052;-83
2022/12/06 08:56:52;;;;;;;13.55;3.33;;;;;;;4.96;100.00;102209.47;5096249;28;20036;-82
2022/12/06 08:59:19;;;;;;;16.27;3.08;;;;;;;5.32;100.00;102240.03;5095437;28;20056;-83
2022/12/06 09:01:46;;;;;;;13.10;4.20;;;;;;;5.45;100.00;102203.78;5099201;28;20052;-83
2022/12/06 09:04:16;;;;;;;16.75;3.70;;;;;;;5.54;100.00;102213.38;5104295;28;20044;-83
2022/12/06 09:06:44;;;;;;;21.02;3.70;;;;;;;5.60;100.00;102249.81;5120544;28;20065;-84
2022/12/06 09:09:14;;;;;;;15.25;2.80;;;;;;;5.61;100.00;102251.53;5104524;28;20405;-84
2022/12/06 09:11:42;;;;;;;18.42;4.47;;;;;;;5.54;100.00;102222.03;5101804;28;20059;-82
2022/12/06 09:14:15;;;;;;;22.90;3.80;;;;;;;5.94;100.00;102240.47;5104544;28;20052;-84
2022/12/06 09:16:48;;;;;;;13.73;3.45;;;;;;;5.97;100.00;102245.75;5104003;28;20055;-83
2022/12/06 09:19:16;;;;;;;19.42;4.35;;;;;;;5.56;100.00;102199.53;5104647;28;20039;-84
2022/12/06 09:21:54;;;;;;;29.90;3.70;;;;;;;5.34;100.00;102193.31;5102827;28;20051;-84
2022/12/06 09:24:21;;;;;;;18.00;3.90;;;;;;;5.52;100.00;102239.34;5103832;28;20065;-84
2022/12/06 09:26:48;;;;;;;18.08;3.45;;;;;;;5.84;100.00;102265.56;5110694;28;20040;-84
2022/12/06 09:29:17;;;;;;;14.73;3.40;;;;;;;5.82;100.00;102237.81;5100168;28;20058;-83
2022/12/06 09:31:44;;;;;;;16.83;3.15;;;;;;;5.82;100.00;102253.41;5101334;28;20381;-84
2022/12/06 09:34:12;;;;;;;11.10;3.50;;;;;;;5.34;100.00;102214.09;5101441;28;20070;-84
2022/12/06 09:36:57;;;;;;;17.05;3.88;;;;;;;5.50;100.00;102241.91;5110485;28;20701;-83
2022/12/06 09:39:44;;;;;;;18.25;5.07;;;;;;;5.84;100.00;102268.16;5102248;28;20052;-84
2022/12/06 09:42:29;;;;;;;16.42;4.53;;;;;;;5.90;100.00;102273.38;5104563;28;20048;-84
2022/12/06 09:45:05;;;;;;;15.07;3.70;;;;;;;5.73;100.00;102245.56;5112097;28;20048;-83
2022/12/06 09:47:38;;;;;;;15.90;3.15;;;;;;;5.90;100.00;102277.72;5096222;28;20052;-85
2022/12/06 09:50:42;;;;;;;19.23;3.60;;;;;;;5.33;100.00;102202.84;5092182;28;20040;-84
2022/12/06 09:53:20;;;;;;;16.92;3.50;;;;;;;5.87;100.00;102275.97;5103851;28;20048;-83
2022/12/06 09:55:52;;;;;;;18.75;2.90;;;;;;;5.80;100.00;102276.78;5103031;28;20079;-84
2022/12/06 09:58:35;;;;;;;15.52;3.38;;;;;;;5.81;100.00;102277.69;5098281;28;20044;-84
2022/12/06 10:01:12;;;;;;;18.08;3.20;;;;;;;5.87;100.00;102269.91;5110749;28;20051;-84
2022/12/06 10:03:38;;;;;;;19.83;4.55;;;;;;;6.05;100.00;102264.84;5106321;28;20056;-84
2022/12/06 10:06:12;;;;;;;23.73;3.95;;;;;;;5.86;100.00;102261.25;5100327;28;20097;-83
2022/12/06 10:08:51;;;;;;;12.07;2.88;;;;;;;6.20;100.00;102260.59;5100749;28;20052;-83
2022/12/06 10:11:55;;;;;;;15.85;3.15;;;;;;;6.08;100.00;102262.25;5102767;28;20501;-83
2022/12/06 10:14:59;;;;;;;18.13;4.00;;;;;;;6.12;100.00;102259.69;5107103;28;20044;-83
2022/12/06 10:17:26;;;;;;;;;;;;;;;6.16;100.00;102262.31;5105044;28;20055;-84
2022/12/06 10:20:08;;;;;;;16.85;3.17;;;;;;;5.61;100.00;102197.84;5104284;28;19981;-84
2022/12/06 10:22:50;;;;;;;19.75;3.03;;;;;;;6.20;100.00;102268.41;5120972;28;20048;-84
2022/12/06 10:25:40;;;;;;;15.90;3.70;;;;;;;6.07;100.00;102265.75;5104585;28;20055;-83
2022/12/06 10:28:13;;;;;;;14.27;3.22;;;;;;;6.30;100.00;102272.75;5100483;28;20040;-84
2022/12/06 10:30:58;;;;;;;21.17;3.22;;;;;;;6.22;100.00;102279.69;5089964;28;20044;-83
2022/12/06 10:33:33;;;;;;;18.00;3.35;;;;;;;6.29;100.00;102298.81;5095123;28;20083;-83
2022/12/06 10:36:04;;;;;;;12.75;2.88;;;;;;;6.11;100.00;102265.72;5100691;28;20540;-82
2022/12/06 10:38:37;;;;;;;12.73;3.00;;;;;;;6.41;100.00;102285.81;5103761;28;20048;-82
2022/12/06 10:41:35;;;;;;;14.52;2.90;;;;;;;6.27;100.00;102278.84;5103268;28;20052;-83
2022/12/06 10:44:20;;;;;;;21.90;2.97;;;;;;;6.00;100.00;102245.78;5101092;28;20052;-83
2022/12/06 10:47:05;;;;;;;15.63;2.80;;;;;;;6.33;100.00;102272.78;5090794;28;20056;-84
2022/12/06 10:49:35;;;;;;;14.50;3.30;;;;;;;6.37;100.00;102281.47;5104247;28;20105;-84
2022/12/06 10:52:17;;;;;;;14.02;3.50;;;;;;;6.31;100.00;102286.66;5101992;28;20056;-83
2022/12/06 10:55:09;;;;;;;20.35;3.40;;;;;;;6.27;100.00;102284.03;5111701;28;20059;-84
2022/12/06 10:58:02;;;;;;;16.20;3.30;;;;;;;6.35;100.00;102293.63;5103176;28;20054;-83
2022/12/06 11:00:36;;;;;;;17.90;3.22;;;;;;;6.14;100.00;102252.75;5092948;28;20047;-83
2022/12/06 11:03:19;;;;;;;19.27;3.13;;;;;;;6.52;100.00;102284.16;5103136;28;20073;-83
2022/12/06 11:05:58;;;;;;;12.93;2.63;;;;;;;6.54;100.00;102286.78;5120251;27;20063;-84
2022/12/06 11:08:55;;;;;;;17.17;3.05;;;;;;;6.38;100.00;102281.50;5099914;28;20051;-84
2022/12/06 11:11:42;;;;;;;32.00;4.35;;;;;;;6.53;100.00;102278.06;5109473;28;20101;-84
2022/12/06 11:14:32;;;;;;;9.63;2.80;;;;;;;6.36;100.00;102275.41;5099148;28;20052;-84
2022/12/06 11:17:06;;;;;;;12.00;3.08;;;;;;;6.33;100.00;102264.13;5097320;28;20048;-83
2022/12/06 11:19:38;;;;;;;15.75;2.55;;;;;;;6.39;100.00;102248.53;5106119;28;20079;-83
2022/12/06 11:22:38;;;;;;;15.43;3.03;;;;;;;6.20;100.00;102217.25;5102456;28;20051;-83
2022/12/06 11:25:08;;;;;;;11.05;2.60;;;;;;;6.49;100.00;102257.25;5094891;28;20507;-84
2022/12/06 11:27:48;;;;;;;16.40;3.03;;;;;;;6.20;100.00;102219.84;5102424;28;20040;-83
2022/12/06 11:30:18;;;;;;;15.65;4.22;;;;;;;6.04;100.00;102203.31;5101532;28;20047;-84
2022/12/06 11:32:50;;;;;;;13.70;2.45;;;;;;;6.15;100.00;102218.97;5103434;28;20101;-84
2022/12/06 11:35:23;;;;;;;14.65;3.08;;;;;;;6.26;100.00;102245.00;5103450;28;20489;-84
2022/12/06 11:37:55;;;;;;;13.23;2.67;;;;;;;6.13;100.00;102201.63;5093141;28;20049;-85
2022/12/06 11:40:26;;;;;;;10.00;2.35;;;;;;;6.34;100.00;102251.13;5102235;28;20048;-85
2022/12/06 11:42:55;;;;;;;12.05;2.95;;;;;;;5.63;100.00;102213.41;5100899;28;20493;-83
2022/12/06 11:45:30;;;;;;;22.23;5.25;;;;;;;5.68;100.00;102238.59;5095346;28;20048;-84
2022/12/06 11:48:00;;;;;;;12.40;3.00;;;;;;;5.53;100.00;102232.44;5100083;28;21306;-83
2022/12/06 11:50:29;;;;;;;16.20;3.33;;;;;;;5.81;100.00;102255.16;5099961;28;20056;-85
2022/12/06 11:53:10;;;;;;;11.98;3.13;;;;;;;5.64;100.00;102218.63;5098317;28;20105;-83
2022/12/06 11:55:43;;;;;;;13.90;2.72;;;;;;;6.02;100.00;102250.94;5114447;27;20043;-84
2022/12/06 11:58:21;;;;;;;9.07;3.03;;;;;;;5.83;100.00;102227.44;5094317;28;20047;-84
2022/12/06 12:01:14;;;;;;;10.60;2.42;;;;;;;6.13;100.00;102244.09;5089003;28;20040;-84